Askew, Mississippi
Current Conditions -  °F | °C
As of 4:35 AM on Sunday 26 Oct 2014 (Local Time) from KUTA Reporting Station
Moderate Fog Moderate Fog  
Wind Chill: 59°   Ceiling: 100
Heat Index: 59°   Visibility: 0.25mi
Dew Point: 59°   Wind: 6mph
Humidity: 100%   Direction: 170°S
Pressure: 30.01"   Gusts: NA
Location:  34.441°N, 90.1719°W
Report Text: KUTA 260935Z AUTO 17005KT 1/4SM FG OVC001 15/15 A3001 RMK AO2
Loading
Personal Weather Stations






























Interactive Weather Map New forecast layout! Learn more

10-Day Weather Forecast

Advertisements
Track Severe Weather on mobile